createdAt,value
2019-03-20T00:01:07.879Z,99536.49
2019-03-20T00:03:38.127Z,99544.59
2019-03-20T00:06:09.202Z,99542.22
2019-03-20T00:08:40.168Z,99542.22
2019-03-20T00:11:11.099Z,99549.17
2019-03-20T00:13:42.058Z,99546.16
2019-03-20T00:16:13.103Z,99547.27
2019-03-20T00:18:43.975Z,99551.82
2019-03-20T00:21:14.940Z,99552.52
2019-03-20T00:23:46.764Z,99552.16
2019-03-20T00:26:17.875Z,99549.66
2019-03-20T00:28:48.980Z,99548.06
2019-03-20T00:31:20.026Z,99548.30
2019-03-20T00:33:51.107Z,99544.30
2019-03-20T00:36:22.108Z,99551.56
2019-03-20T00:38:53.077Z,99549.00
2019-03-20T00:41:24.121Z,99553.70
2019-03-20T00:43:55.175Z,99558.45
2019-03-20T00:46:26.110Z,99557.70
2019-03-20T00:48:57.022Z,99556.83
2019-03-20T00:51:28.062Z,99547.49
2019-03-20T00:53:59.615Z,99549.23
2019-03-20T00:56:30.614Z,99549.16
2019-03-20T00:59:01.662Z,99555.91
2019-03-20T01:01:32.741Z,99551.56
2019-03-20T01:04:03.764Z,99555.34
2019-03-20T01:06:34.842Z,99551.48
2019-03-20T01:09:07.303Z,99553.53
2019-03-20T01:11:38.226Z,99561.95
2019-03-20T01:14:09.408Z,99559.00
2019-03-20T01:16:40.389Z,99553.78
2019-03-20T01:19:11.335Z,99551.05
2019-03-20T01:21:42.424Z,99554.42
2019-03-20T01:24:13.370Z,99555.70
2019-03-20T01:26:44.433Z,99558.87
2019-03-20T01:29:15.326Z,99558.71
2019-03-20T01:31:46.228Z,99551.05
2019-03-20T01:34:17.223Z,99552.55
2019-03-20T01:36:48.368Z,99554.82
2019-03-20T01:39:19.562Z,99559.52
2019-03-20T01:41:50.840Z,99557.38
2019-03-20T01:44:21.752Z,99559.92
2019-03-20T01:46:52.656Z,99561.31
2019-03-20T01:49:23.588Z,99559.98
2019-03-20T01:51:54.443Z,99558.66
2019-03-20T01:54:25.404Z,99558.47
2019-03-20T01:56:56.390Z,99551.66
2019-03-20T01:59:27.357Z,99551.27
2019-03-20T02:01:58.274Z,99552.30
2019-03-20T02:04:29.249Z,99551.90
2019-03-20T02:07:00.205Z,99553.30
2019-03-20T02:09:31.200Z,99555.91
2019-03-20T02:12:02.229Z,99550.87
2019-03-20T02:14:33.226Z,99554.78
2019-03-20T02:17:04.272Z,99555.76
2019-03-20T02:19:35.230Z,99555.64
2019-03-20T02:22:06.259Z,99564.44
2019-03-20T02:24:37.173Z,99569.31
2019-03-20T02:27:09.015Z,99567.03
2019-03-20T02:29:40.089Z,99567.35
2019-03-20T02:32:11.071Z,99575.66
2019-03-20T02:34:41.976Z,99573.11
2019-03-20T02:37:12.945Z,99574.98
2019-03-20T02:39:44.065Z,99578.25
2019-03-20T02:42:15.099Z,99586.25
2019-03-20T02:44:46.153Z,99587.53
2019-03-20T02:47:17.117Z,99592.16
2019-03-20T02:49:48.356Z,99586.86
2019-03-20T02:52:19.383Z,99590.48
2019-03-20T02:54:50.271Z,99589.03
2019-03-20T02:57:21.279Z,99594.19
2019-03-20T02:59:52.305Z,99592.95
2019-03-20T03:02:23.345Z,99589.43
2019-03-20T03:04:54.233Z,99581.26
2019-03-20T03:07:25.232Z,99585.88
2019-03-20T03:09:56.387Z,99581.00
2019-03-20T03:12:27.371Z,99585.52
2019-03-20T03:14:58.341Z,99584.23
2019-03-20T03:17:29.307Z,99578.08
2019-03-20T03:20:00.381Z,99582.55
2019-03-20T03:22:31.573Z,99590.79
2019-03-20T03:25:02.474Z,99592.17
2019-03-20T03:27:33.389Z,99589.61
2019-03-20T03:30:07.755Z,99586.23
2019-03-20T03:32:38.645Z,99585.38
2019-03-20T03:35:16.188Z,99584.05
2019-03-20T03:37:42.577Z,99578.93
2019-03-20T03:40:15.659Z,99580.14
2019-03-20T03:42:46.840Z,99578.81
2019-03-20T03:45:18.179Z,99583.41
2019-03-20T03:47:49.063Z,99575.74
2019-03-20T03:50:20.070Z,99582.95
2019-03-20T03:52:51.113Z,99584.00
2019-03-20T03:55:22.145Z,99589.34
2019-03-20T03:57:53.247Z,99594.69
2019-03-20T04:00:24.555Z,99595.97
2019-03-20T04:02:55.647Z,99590.52
2019-03-20T04:05:26.775Z,99597.37
2019-03-20T04:07:57.731Z,99598.64
2019-03-20T04:10:28.699Z,99603.30
2019-03-20T04:12:59.738Z,99604.52
2019-03-20T04:15:30.717Z,99606.19
2019-03-20T04:18:01.617Z,99606.83
2019-03-20T04:20:32.690Z,99604.22
2019-03-20T04:23:03.847Z,99599.05
2019-03-20T04:25:34.893Z,99605.31
2019-03-20T04:28:05.925Z,99600.50
2019-03-20T04:30:36.825Z,99603.28
2019-03-20T04:33:07.879Z,99604.72
2019-03-20T04:35:38.836Z,99607.11
2019-03-20T04:38:09.797Z,99614.98
2019-03-20T04:40:40.744Z,99623.33
2019-03-20T04:43:11.740Z,99621.69
2019-03-20T04:45:42.693Z,99623.88
2019-03-20T04:48:13.799Z,99627.91
2019-03-20T04:50:44.719Z,99625.30
2019-03-20T04:53:15.801Z,99620.66
2019-03-20T04:55:46.678Z,99625.13
2019-03-20T04:58:17.895Z,99633.06
2019-03-20T05:00:48.791Z,99638.58
2019-03-20T05:03:19.890Z,99639.45
2019-03-20T05:05:51.225Z,99642.37
2019-03-20T05:08:23.715Z,99639.67
2019-03-20T05:10:54.613Z,99647.64
2019-03-20T05:13:25.528Z,99655.08
2019-03-20T05:15:56.629Z,99655.80
2019-03-20T05:18:27.515Z,99651.45
2019-03-20T05:20:58.407Z,99654.20
2019-03-20T05:23:29.371Z,99660.83
2019-03-20T05:26:00.266Z,99654.22
2019-03-20T05:28:31.176Z,99659.05
2019-03-20T05:31:02.355Z,99662.17
2019-03-20T05:33:33.601Z,99668.23
2019-03-20T05:36:05.079Z,99670.38
2019-03-20T05:38:36.076Z,99674.73
2019-03-20T05:41:06.945Z,99675.19
2019-03-20T05:43:37.911Z,99678.20
2019-03-20T05:46:08.804Z,99681.70
2019-03-20T05:48:40.038Z,99686.46
2019-03-20T05:51:11.108Z,99688.14
2019-03-20T05:53:42.146Z,99686.11
2019-03-20T05:56:21.157Z,99694.23
2019-03-20T05:58:52.204Z,99691.22
2019-03-20T06:01:24.749Z,99691.73
2019-03-20T06:03:55.740Z,99694.77
2019-03-20T06:06:26.779Z,99701.61
2019-03-20T06:08:57.764Z,99702.32
2019-03-20T06:11:30.277Z,99710.92
2019-03-20T06:14:01.575Z,99713.55
2019-03-20T06:16:32.464Z,99714.41
2019-03-20T06:19:03.434Z,99712.70
2019-03-20T06:21:34.508Z,99713.86
2019-03-20T06:24:05.473Z,99708.23
2019-03-20T06:26:36.670Z,99715.80
2019-03-20T06:29:07.643Z,99712.52
2019-03-20T06:31:38.738Z,99711.14
2019-03-20T06:34:09.696Z,99705.67
2019-03-20T06:36:40.666Z,99710.61
2019-03-20T06:39:11.994Z,99709.98
2019-03-20T06:41:43.000Z,99714.98
2019-03-20T06:44:13.885Z,99718.97
2019-03-20T06:46:44.882Z,99727.27
2019-03-20T06:49:15.889Z,99724.69
2019-03-20T06:51:46.862Z,99735.41
2019-03-20T06:54:17.752Z,99734.17
2019-03-20T06:56:48.848Z,99737.06
2019-03-20T06:59:28.596Z,99735.77
2019-03-20T07:02:01.517Z,99737.71
2019-03-20T07:04:47.516Z,99736.39
2019-03-20T07:07:24.137Z,99734.91
2019-03-20T07:10:00.918Z,99734.35
2019-03-20T07:12:31.952Z,99735.95
2019-03-20T07:15:03.092Z,99738.86
2019-03-20T07:17:34.066Z,99736.00
2019-03-20T07:20:08.318Z,99742.91
2019-03-20T07:22:39.468Z,99752.69
2019-03-20T07:25:10.417Z,99744.42
2019-03-20T07:27:41.528Z,99746.37
2019-03-20T07:30:13.036Z,99748.81
2019-03-20T07:32:43.972Z,99746.84
2019-03-20T07:35:14.965Z,99748.92
2019-03-20T07:37:55.638Z,99752.64
2019-03-20T07:40:18.641Z,99749.87
2019-03-20T07:42:49.612Z,99748.31
2019-03-20T07:45:20.677Z,99753.77
2019-03-20T07:47:51.892Z,99757.55
2019-03-20T07:50:22.880Z,99760.50
2019-03-20T07:52:53.850Z,99767.70
2019-03-20T07:55:24.814Z,99765.89
2019-03-20T07:57:55.748Z,99764.95
2019-03-20T08:00:26.760Z,99759.42
2019-03-20T08:02:57.709Z,99761.98
2019-03-20T08:05:29.707Z,99767.40
2019-03-20T08:08:07.379Z,99758.11
2019-03-20T08:10:33.429Z,99759.89
2019-03-20T08:13:04.494Z,99763.71
2019-03-20T08:15:36.057Z,99762.47
2019-03-20T08:18:07.010Z,99761.20
2019-03-20T08:20:37.987Z,99765.52
2019-03-20T08:23:08.860Z,99760.31
2019-03-20T08:25:39.844Z,99761.56
2019-03-20T08:28:10.723Z,99760.38
2019-03-20T08:30:41.665Z,99750.19
2019-03-20T08:33:12.632Z,99753.07
2019-03-20T08:35:43.620Z,99753.16
2019-03-20T08:38:18.536Z,99764.92
2019-03-20T08:40:47.191Z,99759.48
2019-03-20T08:43:18.184Z,99767.98
2019-03-20T08:45:49.237Z,99760.62
2019-03-20T08:48:20.313Z,99762.45
2019-03-20T08:50:51.276Z,99759.47
2019-03-20T08:53:22.311Z,99768.30
2019-03-20T08:55:53.224Z,99763.30
2019-03-20T08:58:24.163Z,99765.47
2019-03-20T09:00:55.104Z,99761.23
2019-03-20T09:03:26.032Z,99754.27
2019-03-20T09:05:57.017Z,99755.12
2019-03-20T09:08:29.664Z,99760.77
2019-03-20T09:11:00.642Z,99756.41
2019-03-20T09:13:33.235Z,99758.63
2019-03-20T09:16:04.435Z,99764.77
2019-03-20T09:18:35.407Z,99765.61
2019-03-20T09:21:06.434Z,99761.85
2019-03-20T09:23:37.668Z,99763.46
2019-03-20T09:26:08.663Z,99764.63
2019-03-20T09:28:39.613Z,99766.82
2019-03-20T09:31:10.791Z,99772.09
2019-03-20T09:33:41.788Z,99763.78
2019-03-20T09:36:13.304Z,99776.17
2019-03-20T09:38:44.240Z,99768.62
2019-03-20T09:41:15.124Z,99772.23
2019-03-20T09:43:46.063Z,99767.78
2019-03-20T09:46:16.959Z,99766.50
2019-03-20T09:48:47.917Z,99766.66
2019-03-20T09:51:19.124Z,99763.80
2019-03-20T09:53:50.122Z,99761.83
2019-03-20T09:56:21.082Z,99770.26
2019-03-20T09:58:52.282Z,99769.21
2019-03-20T10:01:23.278Z,99776.80
2019-03-20T10:03:54.155Z,99778.20
2019-03-20T10:06:25.100Z,99767.41
2019-03-20T10:08:56.154Z,99770.14
2019-03-20T10:11:27.039Z,99768.71
2019-03-20T10:13:57.922Z,99768.56
2019-03-20T10:16:28.914Z,99766.20
2019-03-20T10:18:59.904Z,99779.06
2019-03-20T10:21:31.156Z,99772.20
2019-03-20T10:24:02.136Z,99769.91
2019-03-20T10:26:33.122Z,99771.00
2019-03-20T10:29:04.323Z,99778.25
2019-03-20T10:31:35.477Z,99775.36
2019-03-20T10:34:06.422Z,99779.11
2019-03-20T10:36:37.446Z,99772.34
2019-03-20T10:39:08.752Z,99774.72
2019-03-20T10:41:39.846Z,99765.70
2019-03-20T10:44:10.798Z,99775.33
2019-03-20T10:46:41.697Z,99779.31
2019-03-20T10:49:12.654Z,99781.45
2019-03-20T10:51:44.002Z,99783.62
2019-03-20T10:54:16.610Z,99774.81
2019-03-20T10:56:47.556Z,99771.84
2019-03-20T10:59:18.667Z,99767.83
2019-03-20T11:01:50.027Z,99769.83
2019-03-20T11:04:20.882Z,99772.25
2019-03-20T11:06:51.779Z,99767.50
2019-03-20T11:09:22.778Z,99767.51
2019-03-20T11:11:53.959Z,99764.39
2019-03-20T11:14:24.896Z,99758.66
2019-03-20T11:16:55.856Z,99756.77
2019-03-20T11:19:26.775Z,99775.49
2019-03-20T11:21:57.626Z,99763.52
2019-03-20T11:24:28.866Z,99762.52
2019-03-20T11:26:59.749Z,99763.05
2019-03-20T11:29:30.739Z,99755.01
2019-03-20T11:32:01.771Z,99745.93
2019-03-20T11:34:32.678Z,99751.94
2019-03-20T11:37:05.748Z,99752.77
2019-03-20T11:39:36.701Z,99754.45
2019-03-20T11:42:07.734Z,99748.31
2019-03-20T11:44:38.847Z,99745.74
2019-03-20T11:47:09.790Z,99731.30
2019-03-20T11:49:40.895Z,99734.76
2019-03-20T11:52:11.786Z,99732.05
2019-03-20T11:54:42.871Z,99726.81
2019-03-20T11:57:13.871Z,99726.19
2019-03-20T11:59:44.987Z,99726.29
2019-03-20T12:02:27.491Z,99727.33
2019-03-20T12:04:48.505Z,99716.92
2019-03-20T12:07:19.554Z,99713.93
2019-03-20T12:09:50.506Z,99707.29
2019-03-20T12:12:21.398Z,99702.08
2019-03-20T12:14:52.407Z,99696.01
2019-03-20T12:17:23.367Z,99699.47
2019-03-20T12:19:54.382Z,99693.58
2019-03-20T12:22:25.559Z,99694.83
2019-03-20T12:24:56.699Z,99682.33
2019-03-20T12:27:27.720Z,99680.37
2019-03-20T12:29:58.631Z,99684.09
2019-03-20T12:32:50.543Z,99687.10
2019-03-20T12:35:22.310Z,99686.36
2019-03-20T12:37:53.304Z,99673.31
2019-03-20T12:40:25.910Z,99676.91
2019-03-20T12:42:57.968Z,99669.53
2019-03-20T12:45:31.843Z,99667.33
2019-03-20T12:48:03.076Z,99666.37
2019-03-20T12:50:34.076Z,99663.67
2019-03-20T12:53:10.927Z,99659.86
2019-03-20T12:55:41.912Z,99657.22
2019-03-20T12:58:33.844Z,99662.66
2019-03-20T13:01:05.552Z,99655.14
2019-03-20T13:03:36.528Z,99642.58
2019-03-20T13:06:07.466Z,99653.77
2019-03-20T13:08:38.511Z,99643.37
2019-03-20T13:11:09.469Z,99651.68
2019-03-20T13:13:40.790Z,99647.83
2019-03-20T13:16:11.813Z,99653.44
2019-03-20T13:18:43.199Z,99641.25
2019-03-20T13:21:14.143Z,99647.47
2019-03-20T13:23:45.324Z,99641.73
2019-03-20T13:26:16.322Z,99643.66
2019-03-20T13:28:47.416Z,99638.55
2019-03-20T13:31:21.523Z,99638.38
2019-03-20T13:33:52.500Z,99640.96
2019-03-20T13:36:23.442Z,99647.03
2019-03-20T13:38:56.456Z,99644.95
2019-03-20T13:41:27.282Z,99643.05
2019-03-20T13:43:58.253Z,99646.38
2019-03-20T13:46:29.181Z,99645.38
2019-03-20T13:49:00.103Z,99644.03
2019-03-20T13:51:31.049Z,99641.60
2019-03-20T13:54:02.019Z,99638.13
2019-03-20T13:56:33.253Z,99626.90
2019-03-20T13:59:04.258Z,99621.92
2019-03-20T14:01:35.810Z,99622.92
2019-03-20T14:04:06.853Z,99626.64
2019-03-20T14:06:37.791Z,99626.64
2019-03-20T14:09:08.878Z,99626.04
2019-03-20T14:11:39.783Z,99616.66
2019-03-20T14:14:10.811Z,99622.88
2019-03-20T14:16:41.795Z,99623.94
2019-03-20T14:19:12.814Z,99619.09
2019-03-20T14:21:44.114Z,99620.26
2019-03-20T14:24:15.198Z,99615.05
2019-03-20T14:26:46.264Z,99613.21
2019-03-20T14:29:17.339Z,99607.22
2019-03-20T14:31:48.521Z,99616.73
2019-03-20T14:34:19.428Z,99616.55
2019-03-20T14:36:50.391Z,99610.51
2019-03-20T14:39:21.626Z,99622.23
2019-03-20T14:41:52.606Z,99616.55
2019-03-20T14:44:23.594Z,99614.51
2019-03-20T14:46:54.760Z,99611.77
2019-03-20T14:49:25.732Z,99609.64
2019-03-20T14:51:57.284Z,99607.27
2019-03-20T14:54:28.271Z,99612.53
2019-03-20T14:56:59.332Z,99621.39
2019-03-20T14:59:30.286Z,99618.56
2019-03-20T15:02:01.214Z,99611.72
2019-03-20T15:04:32.166Z,99607.97
2019-03-20T15:07:03.402Z,99607.64
2019-03-20T15:09:34.307Z,99610.73
2019-03-20T15:12:05.498Z,99604.84
2019-03-20T15:14:36.428Z,99604.84
2019-03-20T15:17:07.373Z,99609.20
2019-03-20T15:19:38.292Z,99605.13
2019-03-20T15:22:09.334Z,99611.84
2019-03-20T15:24:40.513Z,99603.04
2019-03-20T15:27:11.472Z,99608.20
2019-03-20T15:29:42.353Z,99607.27
2019-03-20T15:32:13.371Z,99611.52
2019-03-20T15:34:44.389Z,99607.67
2019-03-20T15:37:15.384Z,99598.59
2019-03-20T15:39:56.858Z,99598.64
2019-03-20T15:42:27.772Z,99602.08
2019-03-20T15:44:58.840Z,99608.67
2019-03-20T15:47:29.757Z,99599.66
2019-03-20T15:50:00.738Z,99599.91
2019-03-20T15:52:31.844Z,99600.99
2019-03-20T15:55:03.308Z,99604.25
2019-03-20T15:57:34.406Z,99610.39
2019-03-20T16:00:08.357Z,99609.94
2019-03-20T16:02:39.259Z,99614.84
2019-03-20T16:05:10.322Z,99614.08
2019-03-20T16:07:41.395Z,99614.82
2019-03-20T16:10:23.430Z,99613.27
2019-03-20T16:12:54.389Z,99619.20
2019-03-20T16:15:25.670Z,99615.28
2019-03-20T16:17:56.755Z,99607.03
2019-03-20T16:20:27.779Z,99610.59
2019-03-20T16:22:58.888Z,99619.41
2019-03-20T16:25:30.119Z,99619.08
2019-03-20T16:28:07.795Z,99616.73
2019-03-20T16:30:38.730Z,99619.77
2019-03-20T16:33:09.729Z,99617.19
2019-03-20T16:35:40.709Z,99624.78
2019-03-20T16:38:11.689Z,99619.73
2019-03-20T16:40:42.736Z,99616.02
2019-03-20T16:43:13.740Z,99624.29
2019-03-20T16:45:47.029Z,99622.61
2019-03-20T16:48:18.153Z,99616.83
2019-03-20T16:50:49.377Z,99621.69
2019-03-20T16:53:20.433Z,99623.26
2019-03-20T16:55:51.496Z,99620.67
2019-03-20T16:58:22.600Z,99625.77
2019-03-20T17:00:53.600Z,99624.61
2019-03-20T17:03:24.667Z,99621.23
2019-03-20T17:05:55.822Z,99625.89
2019-03-20T17:08:26.780Z,99632.70
2019-03-20T17:10:57.962Z,99632.12
2019-03-20T17:13:29.492Z,99637.78
2019-03-20T17:16:01.281Z,99643.61
2019-03-20T17:18:32.365Z,99643.84
2019-03-20T17:21:04.153Z,99649.20
2019-03-20T17:23:35.451Z,99651.92
2019-03-20T17:26:06.524Z,99650.20
2019-03-20T17:28:37.501Z,99643.59
2019-03-20T17:31:08.384Z,99646.02
2019-03-20T17:33:39.270Z,99648.39
2019-03-20T17:36:10.155Z,99647.31
2019-03-20T17:38:41.113Z,99651.78
2019-03-20T17:41:12.025Z,99651.12
2019-03-20T17:43:43.079Z,99654.77
2019-03-20T17:46:14.102Z,99657.02
2019-03-20T17:48:45.065Z,99656.23
2019-03-20T17:51:17.400Z,99653.32
2019-03-20T17:53:48.583Z,99649.06
2019-03-20T17:56:19.518Z,99655.64
2019-03-20T17:58:52.013Z,99654.91
2019-03-20T18:01:23.325Z,99658.45
2019-03-20T18:03:54.669Z,99658.08
2019-03-20T18:06:25.714Z,99657.27
2019-03-20T18:08:58.032Z,99662.46
2019-03-20T18:11:29.734Z,99659.55
2019-03-20T18:14:00.911Z,99662.16
2019-03-20T18:16:56.469Z,99670.48
2019-03-20T18:19:30.707Z,99674.38
2019-03-20T18:22:01.777Z,99680.53
2019-03-20T18:24:35.013Z,99684.04
2019-03-20T18:27:06.703Z,99691.42
2019-03-20T18:29:37.681Z,99695.79
2019-03-20T18:32:08.720Z,99704.91
2019-03-20T18:34:40.527Z,99701.91
2019-03-20T18:37:14.637Z,99711.41
2019-03-20T18:40:05.731Z,99708.82
2019-03-20T18:42:42.355Z,99708.83
2019-03-20T18:45:16.226Z,99714.88
2019-03-20T18:47:47.315Z,99704.94
2019-03-20T18:50:19.737Z,99713.61
2019-03-20T18:52:51.258Z,99710.17
2019-03-20T18:55:22.708Z,99712.77
2019-03-20T18:57:53.876Z,99717.11
2019-03-20T19:00:27.180Z,99716.27
2019-03-20T19:03:18.831Z,99724.48
2019-03-20T19:05:55.543Z,99726.23
2019-03-20T19:08:28.687Z,99728.86
2019-03-20T19:11:00.237Z,99725.83
2019-03-20T19:13:33.829Z,99731.82
2019-03-20T19:16:06.305Z,99737.40
2019-03-20T19:18:37.376Z,99735.17
2019-03-20T19:21:08.685Z,99737.30
2019-03-20T19:23:40.185Z,99746.30
2019-03-20T19:29:10.968Z,99742.33
2019-03-20T19:31:42.420Z,99743.55
2019-03-20T19:34:13.582Z,99740.04
2019-03-20T19:36:46.204Z,99746.90
2019-03-20T19:39:17.784Z,99742.50
2019-03-20T19:41:53.964Z,99747.59
2019-03-20T19:44:25.263Z,99751.88
2019-03-20T19:46:58.554Z,99751.41
2019-03-20T19:49:32.821Z,99755.66
2019-03-20T19:52:04.028Z,99752.16
2019-03-20T19:54:35.024Z,99750.34
2019-03-20T19:57:06.072Z,99750.30
2019-03-20T19:59:37.215Z,99757.95
2019-03-20T20:02:08.457Z,99756.64
2019-03-20T20:04:39.473Z,99754.06
2019-03-20T20:07:13.185Z,99749.72
2019-03-20T20:09:45.530Z,99753.47
2019-03-20T20:12:19.023Z,99749.11
2019-03-20T20:14:49.681Z,99753.35
2019-03-20T20:17:20.722Z,99753.30
2019-03-20T20:19:53.555Z,99758.82
2019-03-20T20:22:24.497Z,99762.19
2019-03-20T20:24:55.801Z,99769.83
2019-03-20T20:27:26.732Z,99767.20
2019-03-20T20:29:59.699Z,99765.45
2019-03-20T20:32:31.072Z,99774.03
2019-03-20T20:35:02.061Z,99769.53
2019-03-20T20:37:32.995Z,99780.59
2019-03-20T20:40:14.196Z,99780.86
2019-03-20T20:42:47.383Z,99782.86
2019-03-20T20:45:18.283Z,99780.63
2019-03-20T20:47:50.921Z,99780.63
2019-03-20T20:50:25.044Z,99778.86
2019-03-20T20:52:56.258Z,99775.73
2019-03-20T20:55:30.608Z,99776.98
2019-03-20T20:58:01.687Z,99778.22
2019-03-20T21:00:32.691Z,99781.91
2019-03-20T21:03:03.804Z,99783.50
2019-03-20T21:05:34.878Z,99788.14
2019-03-20T21:08:05.814Z,99786.50
2019-03-20T21:10:36.718Z,99787.75
2019-03-20T21:13:07.858Z,99795.89
2019-03-20T21:15:40.751Z,99791.13
2019-03-20T21:18:17.617Z,99792.00
2019-03-20T21:20:49.114Z,99788.98
2019-03-20T21:23:40.378Z,99787.60
2019-03-20T21:26:14.960Z,99783.80
2019-03-20T21:29:11.697Z,99797.38
2019-03-20T21:31:57.704Z,99781.10
2019-03-20T21:34:51.014Z,99785.86
2019-03-20T21:37:34.004Z,99791.37
2019-03-20T21:40:08.128Z,99803.08
2019-03-20T21:43:06.764Z,99810.17
2019-03-20T21:45:58.245Z,99804.41
2019-03-20T21:48:29.363Z,99809.38
2019-03-20T21:51:03.319Z,99817.37
2019-03-20T21:53:52.223Z,99819.38
2019-03-20T21:56:31.950Z,99816.63
2019-03-20T21:59:17.575Z,99819.45
2019-03-20T22:02:07.003Z,99825.77
2019-03-20T22:04:37.966Z,99832.41
2019-03-20T22:07:12.643Z,99833.99
2019-03-20T22:09:55.590Z,99830.44
2019-03-20T22:12:41.381Z,99831.63
2019-03-20T22:15:30.493Z,99831.42
2019-03-20T22:18:19.737Z,99836.36
2019-03-20T22:20:53.701Z,99831.09
2019-03-20T22:23:53.315Z,99829.44
2019-03-20T22:27:00.725Z,99832.13
2019-03-20T22:29:31.616Z,99840.66
2019-03-20T22:32:20.444Z,99842.28
2019-03-20T22:34:59.939Z,99841.23
2019-03-20T22:37:30.851Z,99838.17
2019-03-20T22:40:16.987Z,99833.41
2019-03-20T22:43:08.673Z,99831.59
2019-03-20T22:46:00.237Z,99831.79
2019-03-20T22:49:11.411Z,99831.53
2019-03-20T22:51:57.632Z,99836.53
2019-03-20T22:54:54.251Z,99843.65
2019-03-20T22:57:40.044Z,99842.77
2019-03-20T23:00:11.463Z,99849.33
2019-03-20T23:02:57.798Z,99846.03
2019-03-20T23:05:28.893Z,99844.55
2019-03-20T23:08:00.086Z,99847.02
2019-03-20T23:10:31.181Z,99846.41
2019-03-20T23:13:02.081Z,99845.50
2019-03-20T23:15:33.025Z,99843.71
2019-03-20T23:18:04.163Z,99836.43
2019-03-20T23:20:35.148Z,99832.53
2019-03-20T23:23:06.053Z,99824.94
2019-03-20T23:25:36.964Z,99828.59
2019-03-20T23:28:07.951Z,99816.81
2019-03-20T23:30:38.984Z,99819.27
2019-03-20T23:33:09.872Z,99817.07
2019-03-20T23:35:40.974Z,99829.06
2019-03-20T23:38:11.854Z,99826.14
2019-03-20T23:40:43.064Z,99818.91
2019-03-20T23:43:14.376Z,99818.77
2019-03-20T23:45:45.337Z,99824.97
2019-03-20T23:48:53.110Z,99830.92
2019-03-20T23:51:26.779Z,99825.27
2019-03-20T23:53:58.526Z,99823.33
2019-03-20T23:56:32.648Z,99828.77
2019-03-20T23:59:04.276Z,99824.26
